Nearby METAR Reports

 

KMLP - Mullan Pass
Updated: Sun, 16-Jun-2019 7:53am PDT
Partly Cloudy
Partly Cloudy
 Wind from varies
Wind: varies 3 mph , 6 km/h
Temperature: 59°F , 15°C
Dew Point: 41°F , 5°C
Humidity: 51%
Barometer: 30.10 inHg , 1019.3 hPa
Clouds: Partly Cloudy
Visibility: 10 miles , 16 km
Cloud details: Partly Cloudy 10000 ft
2019/06/16 14:53 KMLP 161453Z AUTO VRB03KT 10SM SCT100 15/05 A3010 RMK AO2 SLP102 T01500050 51005 $
KCOE - Coeur d Alene
Updated: Sun, 16-Jun-2019 7:56am PDT
Clear
Clear
 Wind from NNE
Wind: NNE 6 mph , 9 km/h
Temperature: 64°F , 18°C
Dew Point: 54°F , 12°C
Humidity: 68%
Barometer: 29.96 inHg , 1014.6 hPa
Clouds: Clear
Visibility: 10 miles , 16 km
2019/06/16 14:56 KCOE 161456Z AUTO 02005KT 10SM CLR 18/12 A2996 RMK AO2 SLP145 T01780122 51008
 
KLWS - Lewiston
Updated: Sun, 16-Jun-2019 7:56am PDT
Clear
Clear
 Wind from N
Wind: N 5 mph , 7 km/h
Temperature: 68°F , 20°C
Dew Point: 54°F , 12°C
Humidity: 60%
Barometer: 29.94 inHg , 1013.9 hPa
Clouds: Clear
Visibility: 10 miles , 16 km
2019/06/16 14:56 KLWS 161456Z 01004KT 10SM CLR 20/12 A2994 RMK AO2 SLP129 T02000117 51009
KGEG - Spokane Intl
Updated: Sun, 16-Jun-2019 7:53am PDT
Mostly Cloudy
Mostly Cloudy
 Wind from SSW
Wind: SSW 5 mph , 7 km/h
Temperature: 70°F , 21°C
Dew Point: 48°F , 9°C
Humidity: 46%
Barometer: 29.94 inHg , 1013.9 hPa
Clouds: Mostly Cloudy
Visibility: 10 miles , 16 km
Cloud details: Partly Cloudy 13000 ft
Partly Cloudy 15000 ft
Mostly Cloudy 24000 ft
2019/06/16 14:53 KGEG 161453Z 20004KT 10SM SCT130 SCT150 BKN240 21/09 A2994 RMK AO2 SLP121 T02060089 51006